»·PEaware :: WAT1905 RJAA-KJFK

WAT1905 :: RJAA-KJFK

FLIGHT INFORMATION

Flight Status: Arrived
Operator:
Walker Air Transport
More flights by this operator :: More flights under this callsign
Pilot: Jonathan P. (42949)
Aircraft: AIRBUS A340-600
(A346)
More flights by this aircraft type
Origin: RJAA New Tokyo Intl (Narita)
Japan
Destination: KJFK Kennedy Intl
United States
More flights between these airports :: More routes between these airports
Route: GULBO2 GULBO Y808 PUTER/N0500F320 A590 POXED/N0493F330 A590 PASRO/N0482F340 A590 POOFF/N0483F350 A590 HAMND AMOTT J511 GKN J124 ORT NCA17 TIBOY 63N130W/N0483F370 62N120W 60N110W 57N100W 52N090W YGQ SIKBO Q140 YODAA IGN IGN1
File this flight plan on PilotEdge
Remarks: RMK / SIMBRIEF
Altitude:
(Current/Filed)
31,000ft
Speed:
(Current/Filed)
507kts
Departed: 12-Jun-23 05:01 AM
Arrived: 12-Jun-23 05:24 PM
Distance/Time
Traveled:
5844nm/12:23
Distance/Time
To Go:
Arrived

Flight Plot

Page will automatically refresh every two minutes.

Flight plan parsing failed; only flown route is shown


Map Options




Map Legend


Flown Route
Filed Route
Departure Airport
Arrival Airport
Navaid (VOR, NDB)
Fix

Horizontal Profiles

Position Reports

Time Latitude Longitude Heading Altitude Ground
Speed
12-Jun-23 04:59 35.854452 140.310084 330 2574ft 220kts
12-Jun-23 05:00 35.907635 140.271540 329 4331ft 224kts
12-Jun-23 05:01 35.961805 140.232245 329 5948ft 229kts
12-Jun-23 05:02 36.022419 140.254587 43 6713ft 274kts
12-Jun-23 05:03 36.043263 140.344851 88 7824ft 300kts
12-Jun-23 05:04 36.036239 140.448869 117 9951ft 313kts
12-Jun-23 05:05 35.985239 140.545491 130 10999ft 362kts
12-Jun-23 05:06 35.912742 140.641308 134 12540ft 393kts
12-Jun-23 05:07 35.823677 140.720986 151 14501ft 404kts
12-Jun-23 05:08 35.725820 140.792918 151 16412ft 416kts
12-Jun-23 05:09 35.626400 140.867355 151 18319ft 423kts
12-Jun-23 05:10 35.526283 140.943959 151 20228ft 427kts
12-Jun-23 05:11 35.426631 141.022515 151 22136ft 426kts
12-Jun-23 05:12 35.328669 141.101899 151 24035ft 420kts
12-Jun-23 05:13 35.233057 141.181214 151 25722ft 415kts
12-Jun-23 05:14 35.174496 141.300437 78 26128ft 456kts
12-Jun-23 05:15 35.246786 141.421741 43 26617ft 460kts
12-Jun-23 05:16 35.326652 141.550636 49 27113ft 489kts
12-Jun-23 05:18 35.406657 141.689926 50 27572ft 512kts
12-Jun-23 05:19 35.443920 141.860306 90 28215ft 540kts
12-Jun-23 05:20 35.440672 142.044308 89 29398ft 540kts
12-Jun-23 05:21 35.438880 142.228151 89 30560ft 540kts
12-Jun-23 05:22 35.436946 142.413444 89 30780ft 550kts
12-Jun-23 05:23 35.434654 142.600353 89 30781ft 551kts
12-Jun-23 05:24 35.432150 142.787535 89 30780ft 551kts
12-Jun-23 05:25 35.429241 142.974582 89 30782ft 547kts
12-Jun-23 05:26 35.426090 143.160064 89 30781ft 544kts
12-Jun-23 05:27 35.461111 143.333741 49 30778ft 523kts
12-Jun-23 05:28 35.569691 143.440054 22 30781ft 497kts
12-Jun-23 05:29 35.689907 143.524912 23 30780ft 499kts
12-Jun-23 05:30 35.809025 143.611029 23 30788ft 499kts
12-Jun-23 05:31 35.928633 143.698107 24 30802ft 499kts
12-Jun-23 05:32 36.047625 143.785212 24 30807ft 499kts
12-Jun-23 05:33 36.166099 143.871805 24 30808ft 499kts
12-Jun-23 05:34 36.285293 143.959243 24 30812ft 499kts
12-Jun-23 05:35 36.404566 144.047200 24 30828ft 499kts
12-Jun-23 05:36 36.523729 144.135426 24 30833ft 499kts
12-Jun-23 05:37 36.642373 144.223590 24 30833ft 499kts
12-Jun-23 05:38 36.761351 144.312385 24 30833ft 499kts
12-Jun-23 05:39 36.880023 144.401214 24 30834ft 499kts
12-Jun-23 05:40 36.998664 144.490518 24 30832ft 501kts
12-Jun-23 05:41 37.118876 144.581344 23 30800ft 510kts
12-Jun-23 05:42 37.240687 144.673503 24 30781ft 514kts
12-Jun-23 05:43 37.362657 144.766857 24 30780ft 514kts
12-Jun-23 05:43 37.464250 144.844554 24 30780ft 514kts
12-Jun-23 05:45 37.606407 144.953624 24 30801ft 513kts
12-Jun-23 05:46 37.727586 145.046985 24 30826ft 511kts
12-Jun-23 05:47 37.848739 145.140685 24 30833ft 509kts
12-Jun-23 05:47 37.948768 145.218325 24 30834ft 508kts
12-Jun-23 05:48 38.069087 145.312076 24 30834ft 507kts
12-Jun-23 05:50 38.209136 145.421435 24 30834ft 508kts
12-Jun-23 05:50 38.308417 145.500668 27 30834ft 511kts
12-Jun-23 05:52 38.436080 145.639172 36 30834ft 520kts
12-Jun-23 05:53 38.541738 145.765167 36 30833ft 520kts
12-Jun-23 05:54 38.647417 145.890801 36 30833ft 520kts
12-Jun-23 05:54 38.735663 145.995924 36 30833ft 520kts
12-Jun-23 05:55 38.840999 146.121900 36 30833ft 520kts
12-Jun-23 05:56 38.946842 146.249054 36 30831ft 525kts
12-Jun-23 05:58 39.072297 146.400417 35 30831ft 537kts
12-Jun-23 05:58 39.162824 146.509757 35 30834ft 538kts
12-Jun-23 05:59 39.271659 146.641913 35 30834ft 538kts
12-Jun-23 06:00 39.379905 146.774782 36 30833ft 538kts
12-Jun-23 06:01 39.488509 146.908274 36 30834ft 539kts
12-Jun-23 06:02 39.596041 147.040945 36 30835ft 534kts
12-Jun-23 06:03 39.702846 147.173312 36 30834ft 530kts
12-Jun-23 06:04 39.809416 147.305884 36 30833ft 531kts
12-Jun-23 06:05 39.915778 147.438916 36 30834ft 530kts
12-Jun-23 06:06 40.022005 147.572306 36 30834ft 531kts
12-Jun-23 06:07 40.127864 147.705981 36 30831ft 532kts
12-Jun-23 06:08 40.233912 147.840347 36 30834ft 531kts
12-Jun-23 06:09 40.339859 147.975210 36 30834ft 531kts
12-Jun-23 06:10 40.445409 148.110256 36 30833ft 531kts
12-Jun-23 06:11 40.550688 148.245557 36 30833ft 531kts
12-Jun-23 06:12 40.656131 148.381709 36 30833ft 532kts
12-Jun-23 06:13 40.761301 148.518181 36 30841ft 532kts
12-Jun-23 06:14 40.866317 148.655092 37 30855ft 531kts
12-Jun-23 06:15 40.966118 148.786298 37 30862ft 532kts
12-Jun-23 06:16 41.070803 148.923827 40 30864ft 529kts
12-Jun-23 06:17 41.174111 149.060144 41 30863ft 524kts
12-Jun-23 06:18 41.277135 149.196851 41 30861ft 523kts
12-Jun-23 06:19 41.379604 149.333676 41 30862ft 524kts
12-Jun-23 06:20 41.482199 149.471336 41 30862ft 524kts
12-Jun-23 06:21 41.584499 149.609258 41 30862ft 524kts
12-Jun-23 06:22 41.686111 149.747313 41 30861ft 524kts
12-Jun-23 06:23 41.788253 149.886578 41 30860ft 524kts
12-Jun-23 06:24 41.889913 150.025660 41 30861ft 523kts
12-Jun-23 06:25 41.991487 150.165232 41 30862ft 524kts
12-Jun-23 06:26 42.093036 150.305505 41 30861ft 524kts
12-Jun-23 06:27 42.194551 150.445722 41 30862ft 524kts
12-Jun-23 06:28 42.295552 150.586414 41 30862ft 524kts
12-Jun-23 06:29 42.396637 150.728403 42 30861ft 524kts
12-Jun-23 06:30 42.497052 150.870164 42 30861ft 524kts
12-Jun-23 06:31 42.597868 151.012936 42 30860ft 525kts
12-Jun-23 06:32 42.698545 151.156323 40 30840ft 526kts
12-Jun-23 06:33 42.799284 151.300234 40 30814ft 527kts
12-Jun-23 06:34 42.900010 151.444896 40 30808ft 527kts
12-Jun-23 06:35 43.000379 151.589922 39 30808ft 527kts
12-Jun-23 06:36 43.100630 151.735748 40 30807ft 527kts
12-Jun-23 06:37 43.200625 151.881274 40 30809ft 527kts
12-Jun-23 06:38 43.300621 152.027786 40 30808ft 527kts
12-Jun-23 06:39 43.400651 152.175252 40 30809ft 528kts
12-Jun-23 06:40 43.500229 152.322822 40 30809ft 527kts
12-Jun-23 06:41 43.599486 152.470672 40 30809ft 527kts
12-Jun-23 06:42 43.698735 152.619286 40 30808ft 527kts
12-Jun-23 06:43 43.797567 152.768533 41 30808ft 528kts
12-Jun-23 06:44 43.896486 152.918463 40 30809ft 528kts
12-Jun-23 06:45 43.994804 153.068210 39 30827ft 524kts
12-Jun-23 06:46 44.092323 153.217247 39 30853ft 522kts
12-Jun-23 06:47 44.189639 153.366125 39 30862ft 522kts
12-Jun-23 06:48 44.286811 153.516156 39 30862ft 522kts
12-Jun-23 06:49 44.383727 153.666790 40 30857ft 522kts
12-Jun-23 06:50 44.480242 153.818160 40 30862ft 523kts
12-Jun-23 06:51 44.576690 153.969735 40 30862ft 523kts
12-Jun-23 06:52 44.673005 154.121863 40 30862ft 523kts
12-Jun-23 06:53 44.769218 154.274691 40 30862ft 523kts
12-Jun-23 06:54 44.865300 154.428290 40 30861ft 523kts
12-Jun-23 06:55 44.959851 154.583562 40 30861ft 524kts
12-Jun-23 06:56 45.054112 154.739772 42 30862ft 523kts
12-Jun-23 06:57 45.148096 154.895888 43 30863ft 520kts
12-Jun-23 06:58 45.241350 155.051372 45 30863ft 515kts
12-Jun-23 06:59 45.333211 155.205993 45 30862ft 515kts
12-Jun-23 07:00 45.425190 155.361555 45 30862ft 514kts
12-Jun-23 07:01 45.517089 155.517803 45 30862ft 514kts
12-Jun-23 07:02 45.608513 155.674168 45 30858ft 515kts
12-Jun-23 07:03 45.699519 155.831196 45 30862ft 515kts
12-Jun-23 07:04 45.790682 155.988933 45 30862ft 515kts
12-Jun-23 07:05 45.881811 156.147401 45 30862ft 515kts
12-Jun-23 07:06 45.972373 156.305775 45 30861ft 515kts
12-Jun-23 07:07 46.062906 156.465014 45 30861ft 515kts
12-Jun-23 07:08 46.153246 156.624280 45 30862ft 515kts
12-Jun-23 07:09 46.243152 156.784244 46 30861ft 515kts
12-Jun-23 07:10 46.333378 156.945854 46 31267ft 516kts
12-Jun-23 07:11 46.422809 157.106716 47 32312ft 516kts
12-Jun-23 07:12 46.512541 157.269154 47 32853ft 518kts
12-Jun-23 07:13 46.602026 157.432233 47 32860ft 518kts
12-Jun-23 07:14 46.691704 157.596552 47 32860ft 518kts
12-Jun-23 07:15 46.780620 157.760778 48 32860ft 518kts
12-Jun-23 07:16 46.869662 157.926094 48 32861ft 518kts
12-Jun-23 07:17 46.956558 158.088155 48 32862ft 512kts
12-Jun-23 07:18 47.042195 158.248778 49 32861ft 504kts
12-Jun-23 07:19 47.127986 158.410424 48 32860ft 503kts
12-Jun-23 07:20 47.213848 158.572626 49 32861ft 503kts
12-Jun-23 07:21 47.298949 158.735313 50 32859ft 503kts
12-Jun-23 07:22 47.383093 158.897252 49 32859ft 503kts
12-Jun-23 07:23 47.468429 159.062134 50 32858ft 511kts
12-Jun-23 07:24 47.554784 159.229978 50 32860ft 516kts
12-Jun-23 07:25 47.641282 159.399188 50 32860ft 516kts
12-Jun-23 07:26 47.727536 159.568944 50 32859ft 516kts
12-Jun-23 07:27 47.812836 159.738151 50 32859ft 516kts
12-Jun-23 07:28 47.898548 159.909254 50 32860ft 516kts
12-Jun-23 07:29 47.983893 160.080422 50 32859ft 516kts
12-Jun-23 07:30 48.069010 160.252172 50 32860ft 516kts
12-Jun-23 07:31 48.154346 160.424818 50 32860ft 516kts
12-Jun-23 07:32 48.237610 160.594955 50 32862ft 516kts
12-Jun-23 07:33 48.321067 160.770062 53 32860ft 517kts
12-Jun-23 07:34 48.402633 160.948075 52 32859ft 521kts
12-Jun-23 07:35 48.485359 161.129202 52 32860ft 526kts
12-Jun-23 07:36 48.567932 161.311034 52 32858ft 526kts
12-Jun-23 07:37 48.650032 161.493072 52 32859ft 526kts
12-Jun-23 07:38 48.731909 161.675929 53 32856ft 525kts
12-Jun-23 07:39 48.813383 161.859598 53 32860ft 526kts
12-Jun-23 07:40 48.894668 162.043686 53 32862ft 527kts
12-Jun-23 07:41 48.976044 162.229179 53 32859ft 527kts
12-Jun-23 07:42 49.056388 162.413662 53 32861ft 521kts
12-Jun-23 07:43 49.136096 162.597309 53 32861ft 516kts
12-Jun-23 07:44 49.214787 162.779926 54 32860ft 516kts
12-Jun-23 07:45 49.293283 162.963914 54 32859ft 517kts
12-Jun-23 07:46 49.371441 163.148367 54 32860ft 519kts
12-Jun-23 07:47 49.449235 163.333085 54 32860ft 521kts
12-Jun-23 07:48 49.527262 163.519742 53 32857ft 522kts
12-Jun-23 07:49 49.605233 163.707671 54 32859ft 522kts
12-Jun-23 07:50 49.682656 163.896044 54 32860ft 521kts
12-Jun-23 07:51 49.759904 164.084835 54 32859ft 521kts
12-Jun-23 07:52 49.836446 164.273240 54 32859ft 520kts
12-Jun-23 07:53 49.913171 164.463319 54 32861ft 521kts
12-Jun-23 07:54 49.989559 164.653994 55 32855ft 522kts
12-Jun-23 07:55 50.065578 164.845705 55 32862ft 522kts
12-Jun-23 07:56 50.141554 165.037711 54 32859ft 523kts
12-Jun-23 07:57 50.216791 165.230414 55 32859ft 525kts
12-Jun-23 07:58 50.291660 165.425729 55 32860ft 525kts
12-Jun-23 07:59 50.366066 165.621480 55 32860ft 524kts
12-Jun-23 08:00 50.440218 165.818481 56 32860ft 525kts
12-Jun-23 08:01 50.513283 166.013789 56 32861ft 525kts
12-Jun-23 08:02 50.585996 166.209401 56 32861ft 525kts
12-Jun-23 08:03 50.659178 166.407876 56 32870ft 525kts
12-Jun-23 08:04 50.732128 166.607201 56 32875ft 524kts
12-Jun-23 08:05 50.804402 166.806679 57 32874ft 525kts
12-Jun-23 08:06 50.876651 167.007605 56 32874ft 526kts
12-Jun-23 08:07 50.948764 167.209358 55 32875ft 529kts
12-Jun-23 08:08 51.021045 167.413174 55 32873ft 532kts
12-Jun-23 08:09 51.093461 167.618857 54 32872ft 535kts
12-Jun-23 08:10 51.165903 167.825699 55 32873ft 536kts
12-Jun-23 08:11 51.237558 168.032688 55 32873ft 535kts
12-Jun-23 08:12 51.308947 168.240679 55 32873ft 535kts
12-Jun-23 08:13 51.380105 168.449703 55 32874ft 534kts
12-Jun-23 08:14 51.450568 168.658399 56 32873ft 536kts
12-Jun-23 08:15 51.520979 168.869422 56 32874ft 535kts
12-Jun-23 08:16 51.590782 169.079910 56 32876ft 535kts
12-Jun-23 08:17 51.660425 169.291435 56 32873ft 535kts
12-Jun-23 08:18 51.729566 169.503335 56 32875ft 535kts
12-Jun-23 08:19 51.798264 169.715772 57 32871ft 535kts
12-Jun-23 08:20 51.866317 169.928495 57 32874ft 535kts
12-Jun-23 08:21 51.934431 170.142798 56 32874ft 535kts
12-Jun-23 08:22 52.002114 170.357573 57 32873ft 534kts
12-Jun-23 08:23 52.069075 170.572038 57 32872ft 536kts
12-Jun-23 08:24 52.143735 170.778985 46 32875ft 525kts
12-Jun-23 08:25 52.236993 170.958819 41 32875ft 519kts
12-Jun-23 08:26 52.331231 171.137128 41 32874ft 519kts
12-Jun-23 08:27 52.424702 171.316005 41 32874ft 518kts
12-Jun-23 08:28 52.517661 171.495286 41 32874ft 518kts
12-Jun-23 08:29 52.610440 171.675621 42 32870ft 517kts
12-Jun-23 08:30 52.703049 171.857381 42 32875ft 519kts
12-Jun-23 08:31 52.795340 172.039379 42 32874ft 519kts
12-Jun-23 08:32 52.887653 172.222722 42 32874ft 518kts
12-Jun-23 08:33 52.979363 172.406132 42 32875ft 518kts
12-Jun-23 08:34 53.070949 172.590635 42 32871ft 520kts
12-Jun-23 08:36 53.162744 172.776752 43 32875ft 520kts
12-Jun-23 08:37 53.253678 172.962569 43 32875ft 515kts
12-Jun-23 08:38 53.343092 173.146945 43 32874ft 509kts
12-Jun-23 08:39 53.431854 173.331257 44 32874ft 510kts
12-Jun-23 08:40 53.520523 173.517226 45 32873ft 510kts
12-Jun-23 08:41 53.600295 173.717036 51 32878ft 519kts
12-Jun-23 08:42 53.677535 173.922316 51 32884ft 520kts
12-Jun-23 08:43 53.754805 174.128195 51 32882ft 520kts
12-Jun-23 08:44 53.831820 174.334904 51 32884ft 519kts
12-Jun-23 08:45 53.908326 174.541987 51 32883ft 519kts
12-Jun-23 08:46 53.984492 174.750067 52 32882ft 520kts
12-Jun-23 08:47 54.060353 174.959296 52 32881ft 520kts
12-Jun-23 08:48 54.135452 175.166989 52 32885ft 512kts
12-Jun-23 08:49 54.209530 175.373500 53 32883ft 509kts
12-Jun-23 08:50 54.282679 175.579896 53 32885ft 509kts
12-Jun-23 08:51 54.355463 175.787434 54 32882ft 510kts
12-Jun-23 08:52 54.427943 175.995731 54 32883ft 509kts
12-Jun-23 08:53 54.500296 176.205184 54 32883ft 509kts
12-Jun-23 08:54 54.572136 176.414939 54 32883ft 509kts
12-Jun-23 08:55 54.643406 176.624832 54 32883ft 509kts
12-Jun-23 08:56 54.714648 176.836951 55 32884ft 510kts
12-Jun-23 08:57 54.785224 177.048389 55 32883ft 505kts
12-Jun-23 08:58 54.854523 177.257970 56 32882ft 500kts
12-Jun-23 08:59 54.923373 177.467765 57 32883ft 500kts
12-Jun-23 09:00 54.991472 177.677119 59 32882ft 496kts
12-Jun-23 09:01 55.058439 177.885481 60 32883ft 490kts
12-Jun-23 09:02 55.124837 178.093036 59 32883ft 490kts
12-Jun-23 09:03 55.191051 178.301049 60 32883ft 490kts
12-Jun-23 09:03 55.245612 178.474800 60 32883ft 490kts
12-Jun-23 09:04 55.310650 178.683937 60 32881ft 490kts
12-Jun-23 09:05 55.375950 178.894138 60 32884ft 489kts
12-Jun-23 09:07 55.451129 179.138037 60 32883ft 484kts
12-Jun-23 09:08 55.514747 179.346600 60 32883ft 484kts
12-Jun-23 09:08 55.567612 179.521377 60 32883ft 484kts
12-Jun-23 09:09 55.630568 179.731402 61 32882ft 484kts
12-Jun-23 09:10 55.693052 179.941940 61 32882ft 484kts
12-Jun-23 09:11 55.754977 -179.847908 61 32902ft 478kts
12-Jun-23 09:13 55.826148 -179.604010 61 32918ft 477kts
12-Jun-23 09:13 55.876755 -179.428889 62 32920ft 477kts
12-Jun-23 09:14 55.936935 -179.218668 62 32920ft 477kts
12-Jun-23 09:15 55.996878 -179.007765 62 32919ft 478kts
12-Jun-23 09:16 56.056558 -178.795874 62 32920ft 477kts
12-Jun-23 09:17 56.115846 -178.583806 61 32921ft 477kts
12-Jun-23 09:18 56.175173 -178.370475 62 32920ft 477kts
12-Jun-23 09:19 56.233638 -178.156990 62 32920ft 477kts
12-Jun-23 09:20 56.291846 -177.942510 62 32920ft 477kts
12-Jun-23 09:21 56.349546 -177.727876 62 32920ft 477kts
12-Jun-23 09:22 56.407042 -177.511940 62 32920ft 477kts
12-Jun-23 09:23 56.464126 -177.295456 63 32921ft 478kts
12-Jun-23 09:24 56.520594 -177.078806 63 32921ft 477kts
12-Jun-23 09:25 56.576477 -176.862790 63 32921ft 469kts
12-Jun-23 09:26 56.631318 -176.648714 63 32919ft 468kts
12-Jun-23 09:27 56.685765 -176.434132 63 32919ft 468kts
12-Jun-23 09:28 56.739757 -176.218867 64 32919ft 468kts
12-Jun-23 09:29 56.793334 -176.003262 64 32924ft 468kts
12-Jun-23 09:30 56.846637 -175.786760 64 32939ft 468kts
12-Jun-23 09:31 56.899445 -175.569702 64 32947ft 468kts
12-Jun-23 09:32 56.951885 -175.351730 64 32948ft 468kts
12-Jun-23 09:33 57.003656 -175.134058 65 32936ft 466kts
12-Jun-23 09:34 57.054849 -174.917056 66 32819ft 462kts
12-Jun-23 09:35 57.105599 -174.699543 67 32746ft 465kts
12-Jun-23 09:36 57.156769 -174.479922 67 32731ft 467kts
12-Jun-23 09:37 57.207026 -174.260028 68 32727ft 467kts
12-Jun-23 09:38 57.256978 -174.038818 68 32726ft 467kts
12-Jun-23 09:39 57.306547 -173.816960 68 32726ft 467kts
12-Jun-23 09:40 57.356114 -173.595568 67 32734ft 467kts
12-Jun-23 09:41 57.406456 -173.374443 67 32744ft 467kts
12-Jun-23 09:42 57.456255 -173.151728 68 32745ft 466kts
12-Jun-23 09:43 57.505381 -172.929840 68 32743ft 466kts
12-Jun-23 09:44 57.554425 -172.705970 68 32744ft 467kts
12-Jun-23 09:45 57.603007 -172.481682 68 32743ft 467kts
12-Jun-23 09:46 57.651166 -172.256796 69 32745ft 467kts
12-Jun-23 09:47 57.698887 -172.031391 69 32744ft 467kts
12-Jun-23 09:48 57.746240 -171.805512 69 32744ft 467kts
12-Jun-23 09:49 57.793313 -171.578463 69 32743ft 467kts
12-Jun-23 09:50 57.839906 -171.351170 69 32743ft 467kts
12-Jun-23 09:51 57.885988 -171.123323 70 32745ft 467kts
12-Jun-23 09:52 57.931805 -170.894607 71 32743ft 468kts
12-Jun-23 09:53 57.978489 -170.665884 69 32745ft 469kts
12-Jun-23 09:54 58.027745 -170.438432 69 32743ft 469kts
12-Jun-23 09:55 58.076312 -170.209595 70 32745ft 469kts
12-Jun-23 09:56 58.124470 -169.981094 70 32743ft 469kts
12-Jun-23 09:57 58.172395 -169.751521 70 32745ft 469kts
12-Jun-23 09:58 58.219815 -169.520464 70 32745ft 469kts
12-Jun-23 09:59 58.266515 -169.289973 71 32746ft 469kts
12-Jun-23 10:00 58.313033 -169.057570 71 32742ft 471kts
12-Jun-23 10:01 58.359386 -168.823378 71 32745ft 476kts
12-Jun-23 10:02 58.405602 -168.587118 71 32744ft 476kts
12-Jun-23 10:03 58.451290 -168.350780 71 32746ft 477kts
12-Jun-23 10:04 58.496763 -168.112217 72 32758ft 477kts
12-Jun-23 10:05 58.541087 -167.877188 72 32677ft 476kts
12-Jun-23 10:06 58.585471 -167.638892 72 32593ft 476kts
12-Jun-23 10:07 58.629554 -167.399164 72 32571ft 477kts
12-Jun-23 10:08 58.673071 -167.158998 73 32569ft 476kts
12-Jun-23 10:09 58.716278 -166.918847 72 32567ft 477kts
12-Jun-23 10:10 58.760061 -166.677259 72 32567ft 479kts
12-Jun-23 10:11 58.803268 -166.434847 72 32567ft 479kts
12-Jun-23 10:12 58.845934 -166.191698 73 32568ft 479kts
12-Jun-23 10:13 58.888089 -165.948324 73 32568ft 479kts
12-Jun-23 10:14 58.930406 -165.703845 73 32568ft 478kts
12-Jun-23 10:15 58.971857 -165.460714 73 32569ft 477kts
12-Jun-23 10:16 59.012880 -165.216374 74 32580ft 475kts
12-Jun-23 10:17 59.053316 -164.972369 74 32584ft 475kts
12-Jun-23 10:18 59.093346 -164.727510 75 32583ft 476kts
12-Jun-23 10:19 59.133340 -164.481927 74 32585ft 477kts
12-Jun-23 10:20 59.172794 -164.234437 75 32584ft 476kts
12-Jun-23 10:21 59.211458 -163.987484 75 32585ft 476kts
12-Jun-23 10:22 59.249754 -163.739486 75 32605ft 476kts
12-Jun-23 10:23 59.287406 -163.492054 75 32666ft 476kts
12-Jun-23 10:24 59.324710 -163.243059 76 32685ft 476kts
12-Jun-23 10:25 59.361702 -162.992703 77 32685ft 482kts
12-Jun-23 10:26 59.398549 -162.738672 78 32691ft 486kts
12-Jun-23 10:27 59.435133 -162.482418 78 32696ft 486kts
12-Jun-23 10:28 59.473648 -162.227829 75 32697ft 488kts
12-Jun-23 10:29 59.516491 -161.974532 75 32696ft 488kts
12-Jun-23 10:30 59.558729 -161.720022 75 32696ft 488kts
12-Jun-23 10:31 59.600308 -161.465605 75 32696ft 488kts
12-Jun-23 10:32 59.641504 -161.209593 76 32701ft 488kts
12-Jun-23 10:33 59.682227 -160.952788 76 32862ft 490kts
12-Jun-23 10:34 59.722783 -160.693306 76 32961ft 496kts
12-Jun-23 10:35 59.762945 -160.432611 76 32975ft 496kts
12-Jun-23 10:36 59.802820 -160.169427 77 32976ft 496kts
12-Jun-23 10:37 59.842028 -159.906649 77 32976ft 496kts
12-Jun-23 10:38 59.880678 -159.643567 77 32940ft 495kts
12-Jun-23 10:39 59.918777 -159.380173 77 32835ft 495kts
12-Jun-23 10:40 59.956252 -159.116708 78 32826ft 491kts
12-Jun-23 10:41 59.993070 -158.853502 78 32836ft 494kts
12-Jun-23 10:42 60.029651 -158.587711 79 32832ft 495kts
12-Jun-23 10:43 60.065637 -158.321877 79 32830ft 495kts
12-Jun-23 10:44 60.101132 -158.054927 79 32868ft 495kts
12-Jun-23 10:45 60.136536 -157.788063 79 32896ft 495kts
12-Jun-23 10:46 60.171027 -157.520503 79 32901ft 495kts
12-Jun-23 10:47 60.204870 -157.252347 80 32901ft 495kts
12-Jun-23 10:48 60.238149 -156.983299 80 32900ft 499kts
12-Jun-23 10:49 60.271094 -156.712537 80 32902ft 501kts
12-Jun-23 10:50 60.303636 -156.439932 80 32902ft 501kts
12-Jun-23 10:51 60.335662 -156.166204 81 32881ft 500kts
12-Jun-23 10:52 60.367087 -155.892132 81 32863ft 501kts
12-Jun-23 10:53 60.397936 -155.618002 81 32858ft 500kts
12-Jun-23 10:54 60.428208 -155.343216 82 32861ft 501kts
12-Jun-23 10:55 60.457937 -155.067158 82 32884ft 500kts
12-Jun-23 10:56 60.487123 -154.790137 82 32917ft 508kts
12-Jun-23 10:57 60.519942 -154.509815 80 32928ft 513kts
12-Jun-23 10:58 60.555226 -154.229007 81 32929ft 511kts
12-Jun-23 10:59 60.589626 -153.947751 80 32926ft 512kts
12-Jun-23 11:00 60.623501 -153.666095 80 32929ft 512kts
12-Jun-23 11:01 60.656715 -153.383768 81 32928ft 512kts
12-Jun-23 11:02 60.689245 -153.101551 81 32946ft 511kts
12-Jun-23 11:03 60.721026 -152.820405 82 32981ft 520kts
12-Jun-23 11:04 60.752857 -152.533119 82 32983ft 519kts
12-Jun-23 11:05 60.784089 -152.244544 82 32982ft 518kts
12-Jun-23 11:06 60.814916 -151.953485 83 32986ft 520kts
12-Jun-23 11:07 60.844942 -151.662962 82 32982ft 520kts
12-Jun-23 11:08 60.877876 -151.373285 76 32982ft 524kts
12-Jun-23 11:09 60.933621 -151.093657 70 32979ft 533kts
12-Jun-23 11:10 60.993663 -150.810737 69 32987ft 550kts
12-Jun-23 11:11 61.054126 -150.520187 69 32989ft 550kts
12-Jun-23 11:12 61.113667 -150.229634 70 32975ft 551kts
12-Jun-23 11:13 61.173956 -149.937195 67 32978ft 552kts
12-Jun-23 11:14 61.242723 -149.651560 65 32972ft 553kts
12-Jun-23 11:15 61.310974 -149.365305 66 32977ft 552kts
12-Jun-23 11:16 61.378594 -149.076148 67 32988ft 552kts
12-Jun-23 11:17 61.444299 -148.791571 66 32977ft 564kts
12-Jun-23 11:18 61.512132 -148.494231 66 32979ft 568kts
12-Jun-23 11:19 61.579548 -148.194343 67 32978ft 568kts
12-Jun-23 11:20 61.645405 -147.897095 67 32979ft 568kts
12-Jun-23 11:21 61.711421 -147.595039 67 32979ft 568kts
12-Jun-23 11:22 61.776759 -147.291840 68 32976ft 567kts
12-Jun-23 11:23 61.841489 -146.986370 68 32978ft 569kts
12-Jun-23 11:24 61.906020 -146.677890 67 32979ft 572kts
12-Jun-23 11:25 61.969928 -146.368097 67 32978ft 572kts
12-Jun-23 11:26 62.033148 -146.056262 68 32983ft 573kts
12-Jun-23 11:27 62.095612 -145.743711 68 32985ft 573kts
12-Jun-23 11:28 62.158555 -145.430741 64 32985ft 574kts
12-Jun-23 11:29 62.231882 -145.126025 63 32984ft 574kts
12-Jun-23 11:30 62.305117 -144.819167 61 32986ft 579kts
12-Jun-23 11:31 62.377812 -144.510117 61 32986ft 579kts
12-Jun-23 11:32 62.449813 -144.198867 62 32985ft 579kts
12-Jun-23 11:33 62.520797 -143.887345 62 32986ft 579kts
12-Jun-23 11:34 62.591472 -143.572955 62 32969ft 579kts
12-Jun-23 11:35 62.661242 -143.257986 64 32888ft 580kts
12-Jun-23 11:36 62.728323 -142.949976 63 32871ft 579kts
12-Jun-23 11:37 62.795437 -142.637693 62 32868ft 576kts
12-Jun-23 11:38 62.862708 -142.320344 63 32864ft 576kts
12-Jun-23 11:39 62.928312 -141.999799 67 32866ft 577kts
12-Jun-23 11:40 62.968121 -141.659099 82 32867ft 574kts
12-Jun-23 11:41 62.993444 -141.312432 83 32864ft 574kts
12-Jun-23 11:42 63.017948 -140.965153 86 32866ft 573kts
12-Jun-23 11:43 63.030698 -140.614897 87 32867ft 572kts
12-Jun-23 11:44 63.042198 -140.265964 88 32865ft 572kts
12-Jun-23 11:45 63.053058 -139.914634 88 32866ft 572kts
12-Jun-23 11:46 63.062989 -139.565303 88 32822ft 572kts
12-Jun-23 11:47 63.072096 -139.214774 89 32780ft 572kts
12-Jun-23 11:49 63.080234 -138.863752 88 32774ft 573kts
12-Jun-23 11:50 63.087669 -138.512772 88 32773ft 573kts
12-Jun-23 11:51 63.094207 -138.160641 90 32773ft 572kts
12-Jun-23 11:52 63.099815 -137.809542 89 32773ft 572kts
12-Jun-23 11:53 63.105102 -137.457695 89 32791ft 572kts
12-Jun-23 11:54 63.109098 -137.107048 91 32814ft 571kts
12-Jun-23 11:55 63.112059 -136.756182 90 32820ft 569kts
12-Jun-23 11:56 63.114224 -136.406668 90 32821ft 568kts
12-Jun-23 11:57 63.115519 -136.057260 91 32819ft 568kts
12-Jun-23 11:58 63.115926 -135.717608 91 32820ft 568kts
12-Jun-23 11:59 63.115508 -135.368269 91 32821ft 568kts
12-Jun-23 12:00 63.114231 -135.018771 92 32819ft 568kts
12-Jun-23 12:01 63.112068 -134.669639 91 32820ft 568kts
12-Jun-23 12:02 63.109166 -134.325722 93 32838ft 569kts
12-Jun-23 12:03 63.105432 -133.984036 93 32862ft 568kts
12-Jun-23 12:04 63.100771 -133.635807 93 32866ft 568kts
12-Jun-23 12:05 63.095266 -133.287505 94 32864ft 568kts
12-Jun-23 12:06 63.089049 -132.952467 92 32866ft 568kts
12-Jun-23 12:07 63.081929 -132.604613 92 32866ft 568kts
12-Jun-23 12:08 63.074113 -132.264927 93 32864ft 568kts
12-Jun-23 12:09 63.065383 -131.923552 93 32866ft 568kts
12-Jun-23 12:10 63.055649 -131.575971 93 32866ft 568kts
12-Jun-23 12:11 63.045079 -131.228573 94 32864ft 568kts
12-Jun-23 12:12 63.033591 -130.881787 94 32866ft 568kts
12-Jun-23 12:13 63.021258 -130.534600 94 32867ft 569kts
12-Jun-23 12:13 63.010304 -130.245923 95 32865ft 569kts
12-Jun-23 12:15 62.991843 -129.853995 98 32908ft 569kts
12-Jun-23 12:16 62.969772 -129.510513 98 32926ft 569kts
12-Jun-23 12:17 62.946832 -129.166092 99 32928ft 569kts
12-Jun-23 12:17 62.927427 -128.886302 98 32931ft 566kts
12-Jun-23 12:19 62.899296 -128.491356 98 32918ft 565kts
12-Jun-23 12:20 62.873658 -128.152383 99 32889ft 564kts
12-Jun-23 12:20 62.851984 -127.870206 99 32826ft 564kts
12-Jun-23 12:22 62.820789 -127.475645 99 32793ft 564kts
12-Jun-23 12:23 62.793215 -127.138122 100 32785ft 564kts
12-Jun-23 12:24 62.765259 -126.806462 100 32785ft 558kts
12-Jun-23 12:24 62.741306 -126.530060 100 32784ft 558kts
12-Jun-23 12:25 62.711909 -126.199301 101 32783ft 558kts
12-Jun-23 12:26 62.681604 -125.867912 101 32784ft 558kts
12-Jun-23 12:28 62.645390 -125.483777 101 32784ft 558kts
12-Jun-23 12:29 62.613456 -125.154173 102 32823ft 558kts
12-Jun-23 12:29 62.586115 -124.879252 102 32881ft 554kts
12-Jun-23 12:30 62.553261 -124.555994 101 32899ft 547kts
12-Jun-23 12:31 62.519805 -124.234511 102 32901ft 547kts
12-Jun-23 12:32 62.486706 -123.924161 103 32903ft 547kts
12-Jun-23 12:33 62.451720 -123.603955 103 32903ft 547kts
12-Jun-23 12:34 62.416124 -123.285350 103 32907ft 547kts
12-Jun-23 12:35 62.379697 -122.966327 104 32945ft 546kts
12-Jun-23 12:36 62.342652 -122.649451 104 32964ft 544kts
12-Jun-23 12:37 62.304935 -122.333824 105 32966ft 544kts
12-Jun-23 12:38 62.266487 -122.018466 105 32966ft 544kts
12-Jun-23 12:39 62.227465 -121.705412 105 32967ft 544kts
12-Jun-23 12:40 62.187544 -121.391630 105 32960ft 544kts
12-Jun-23 12:41 62.147102 -121.079864 105 32945ft 543kts
12-Jun-23 12:42 62.106290 -120.771754 105 32942ft 540kts
12-Jun-23 12:43 62.064734 -120.464048 105 32942ft 540kts
12-Jun-23 12:44 62.022402 -120.156954 106 32941ft 540kts
12-Jun-23 12:45 61.980205 -119.863810 108 32942ft 540kts
12-Jun-23 12:46 61.933021 -119.560321 108 32942ft 540kts
12-Jun-23 12:47 61.885235 -119.258143 109 32940ft 540kts
12-Jun-23 12:48 61.836502 -118.956740 109 32942ft 540kts
12-Jun-23 12:49 61.787629 -118.657372 108 32949ft 539kts
12-Jun-23 12:50 61.737927 -118.357275 108 33015ft 539kts
12-Jun-23 12:51 61.687814 -118.059218 109 33046ft 539kts
12-Jun-23 12:52 61.636935 -117.761932 109 33058ft 538kts
12-Jun-23 12:53 61.585612 -117.466831 109 33059ft 538kts
12-Jun-23 12:54 61.533511 -117.171494 110 33059ft 538kts
12-Jun-23 12:55 61.481791 -116.882999 110 33061ft 534kts
12-Jun-23 12:56 61.429975 -116.598407 110 33060ft 532kts
12-Jun-23 12:57 61.377286 -116.313213 111 33494ft 534kts
12-Jun-23 12:58 61.323589 -116.026376 111 35093ft 529kts
12-Jun-23 12:59 61.269527 -115.742239 111 36362ft 526kts
12-Jun-23 13:00 61.215043 -115.459977 111 37049ft 527kts
12-Jun-23 13:01 61.160152 -115.179205 112 37056ft 527kts
12-Jun-23 13:02 61.105021 -114.901494 112 37057ft 520kts
12-Jun-23 13:03 61.049564 -114.625725 112 37057ft 520kts
12-Jun-23 13:04 60.995374 -114.359996 112 37058ft 520kts
12-Jun-23 13:05 60.938856 -114.086040 113 37056ft 520kts
12-Jun-23 13:06 60.883026 -113.819940 113 37055ft 520kts
12-Jun-23 13:07 60.824955 -113.548290 113 37056ft 520kts
12-Jun-23 13:08 60.766604 -113.276863 113 37055ft 520kts
12-Jun-23 13:09 60.707822 -113.006472 114 37057ft 519kts
12-Jun-23 13:10 60.655348 -112.768190 114 37057ft 513kts
12-Jun-23 13:11 60.655348 -112.768190 114 37057ft 513kts
12-Jun-23 13:31 59.760658 -109.020523 117 37057ft 516kts
12-Jun-23 13:32 59.697508 -108.769066 117 37056ft 517kts
12-Jun-23 13:33 59.632917 -108.514832 117 37056ft 517kts
12-Jun-23 13:34 59.567914 -108.261686 118 37055ft 517kts
12-Jun-23 13:35 59.502342 -108.008981 118 37056ft 517kts
12-Jun-23 13:36 59.437601 -107.762617 118 37056ft 517kts
12-Jun-23 13:37 59.371113 -107.512419 118 37056ft 517kts
12-Jun-23 13:38 59.304224 -107.263291 119 37056ft 517kts
12-Jun-23 13:39 59.237418 -107.016978 119 37056ft 517kts
12-Jun-23 13:40 59.169299 -106.768912 119 37056ft 517kts
12-Jun-23 13:41 59.101120 -106.523345 119 37057ft 517kts
12-Jun-23 13:42 59.032180 -106.277543 120 37056ft 517kts
12-Jun-23 13:43 58.963106 -106.033621 120 37056ft 516kts
12-Jun-23 13:44 58.893161 -105.789652 120 37056ft 516kts
12-Jun-23 13:45 58.822154 -105.546357 120 37056ft 516kts
12-Jun-23 13:46 58.751618 -105.305672 121 37055ft 516kts
12-Jun-23 13:47 58.680435 -105.064586 121 37056ft 516kts
12-Jun-23 13:48 58.609013 -104.825614 121 37056ft 516kts
12-Jun-23 13:49 58.536857 -104.586713 121 37056ft 516kts
12-Jun-23 13:50 58.464725 -104.350319 121 37056ft 516kts
12-Jun-23 13:51 58.391553 -104.112400 122 37056ft 516kts
12-Jun-23 13:52 58.318435 -103.877478 122 37056ft 516kts
12-Jun-23 13:53 58.244782 -103.643289 122 37057ft 516kts
12-Jun-23 13:54 58.170729 -103.410164 122 37057ft 516kts
12-Jun-23 13:55 58.096441 -103.178165 123 37056ft 515kts
12-Jun-23 13:56 58.023185 -102.952088 123 37056ft 515kts
12-Jun-23 13:57 57.947910 -102.722130 123 37057ft 515kts
12-Jun-23 13:58 57.872196 -102.493397 123 37056ft 515kts
12-Jun-23 13:59 57.795374 -102.263964 124 37056ft 515kts
12-Jun-23 14:00 57.718503 -102.035340 124 37056ft 515kts
12-Jun-23 14:01 57.642378 -101.811347 124 37056ft 515kts
12-Jun-23 14:02 57.566008 -101.588762 124 37056ft 515kts
12-Jun-23 14:03 57.489152 -101.366822 124 37056ft 515kts
12-Jun-23 14:04 57.411173 -101.143225 125 37056ft 514kts
12-Jun-23 14:05 57.332852 -100.921130 125 37056ft 514kts
12-Jun-23 14:06 57.256093 -100.705520 125 37056ft 514kts
12-Jun-23 14:07 57.177388 -100.486447 125 37057ft 514kts
12-Jun-23 14:08 57.097622 -100.266251 126 37056ft 514kts
12-Jun-23 14:09 57.017800 -100.048004 126 37056ft 514kts
12-Jun-23 14:10 56.935860 -99.840988 128 37057ft 513kts
12-Jun-23 14:11 56.850509 -99.632714 128 37056ft 513kts
12-Jun-23 14:12 56.764324 -99.424222 128 37056ft 513kts
12-Jun-23 14:13 56.678040 -99.216267 129 37056ft 513kts
12-Jun-23 14:14 56.591432 -99.009396 129 37056ft 513kts
12-Jun-23 14:15 56.504908 -98.804720 129 37056ft 512kts
12-Jun-23 14:16 56.418495 -98.602035 129 37056ft 512kts
12-Jun-23 14:17 56.331440 -98.399538 129 37056ft 512kts
12-Jun-23 14:18 56.243820 -98.196982 130 37056ft 512kts
12-Jun-23 14:19 56.157418 -97.999122 130 37056ft 512kts
12-Jun-23 14:20 56.069114 -97.798748 130 37056ft 512kts
12-Jun-23 14:21 55.981722 -97.602070 130 37057ft 512kts
12-Jun-23 14:22 55.893181 -97.404429 130 37057ft 512kts
12-Jun-23 14:23 55.803654 -97.206884 131 37056ft 511kts
12-Jun-23 14:24 55.713903 -97.009752 131 37056ft 511kts
12-Jun-23 14:25 55.624284 -96.814502 131 37056ft 511kts
12-Jun-23 14:26 55.535940 -96.623564 131 37056ft 511kts
12-Jun-23 14:27 55.445741 -96.430149 131 37056ft 511kts
12-Jun-23 14:28 55.355171 -96.237122 132 37056ft 511kts
12-Jun-23 14:29 55.264454 -96.045376 132 37056ft 511kts
12-Jun-23 14:30 55.173341 -95.854561 132 37056ft 511kts
12-Jun-23 14:31 55.081906 -95.664586 132 37057ft 510kts
12-Jun-23 14:32 54.994075 -95.483483 132 37057ft 510kts
12-Jun-23 14:33 54.901854 -95.294622 133 37055ft 510kts
12-Jun-23 14:34 54.809462 -95.107535 133 37056ft 510kts
12-Jun-23 14:35 54.716648 -94.920697 133 37056ft 510kts
12-Jun-23 14:36 54.624549 -94.736532 133 37056ft 510kts
12-Jun-23 14:37 54.531804 -94.552471 133 37056ft 510kts
12-Jun-23 14:38 54.438587 -94.368866 133 37056ft 510kts
12-Jun-23 14:39 54.345217 -94.185838 134 37056ft 509kts
12-Jun-23 14:40 54.251458 -94.003775 134 37056ft 509kts
12-Jun-23 14:41 54.157352 -93.822530 134 37056ft 509kts
12-Jun-23 14:42 54.063280 -93.642694 134 37057ft 509kts
12-Jun-23 14:43 53.970399 -93.466426 134 37057ft 509kts
12-Jun-23 14:44 53.875623 -93.287861 135 37056ft 509kts
12-Jun-23 14:45 53.780614 -93.110581 135 37056ft 508kts
12-Jun-23 14:46 53.685371 -92.933806 135 37056ft 508kts
12-Jun-23 14:47 53.590036 -92.758085 135 37056ft 508kts
12-Jun-23 14:48 53.494424 -92.583112 135 37056ft 508kts
12-Jun-23 14:49 53.398465 -92.408759 135 37056ft 508kts
12-Jun-23 14:50 53.302244 -92.234787 136 37056ft 508kts
12-Jun-23 14:51 53.206069 -92.062289 136 37056ft 508kts
12-Jun-23 14:52 53.111740 -91.894491 136 37056ft 508kts
12-Jun-23 14:53 53.015179 -91.723918 136 37056ft 508kts
12-Jun-23 14:54 52.918049 -91.553546 136 37057ft 508kts
12-Jun-23 14:55 52.820657 -91.384622 136 37056ft 507kts
12-Jun-23 14:56 52.723587 -91.216507 136 37056ft 507kts
12-Jun-23 14:57 52.627893 -91.051944 137 37056ft 507kts
12-Jun-23 14:58 52.530138 -90.885128 137 37056ft 507kts
12-Jun-23 14:59 52.432113 -90.719000 137 37056ft 507kts
12-Jun-23 15:00 52.333968 -90.553784 137 37056ft 507kts
12-Jun-23 15:01 52.235786 -90.389636 137 37057ft 507kts
12-Jun-23 15:02 52.137255 -90.225619 137 37056ft 506kts
12-Jun-23 15:03 52.038360 -90.062524 137 37056ft 506kts
12-Jun-23 15:04 51.938720 -89.910945 141 37057ft 504kts
12-Jun-23 15:05 51.833584 -89.760685 141 37056ft 504kts
12-Jun-23 15:06 51.729645 -89.612948 141 37056ft 504kts
12-Jun-23 15:07 51.624545 -89.464190 141 37056ft 504kts
12-Jun-23 15:08 51.518557 -89.314999 142 37055ft 504kts
12-Jun-23 15:09 51.412895 -89.166831 142 37056ft 504kts
12-Jun-23 15:10 51.307443 -89.020321 142 37056ft 504kts
12-Jun-23 15:11 51.205821 -88.880061 142 37056ft 504kts
12-Jun-23 15:12 51.099771 -88.734596 142 37056ft 503kts
12-Jun-23 15:13 50.994678 -88.591332 142 37057ft 503kts
12-Jun-23 15:14 50.889561 -88.448950 142 37057ft 503kts
12-Jun-23 15:15 50.782642 -88.305484 143 37055ft 503kts
12-Jun-23 15:16 50.675727 -88.162088 143 37056ft 503kts
12-Jun-23 15:17 50.572255 -88.024441 143 37056ft 503kts
12-Jun-23 15:18 50.465547 -87.883385 143 37056ft 503kts
12-Jun-23 15:19 50.358190 -87.742340 143 37056ft 503kts
12-Jun-23 15:20 50.251311 -87.602775 143 37056ft 503kts
12-Jun-23 15:21 50.143694 -87.463096 143 37057ft 503kts
12-Jun-23 15:22 50.036787 -87.325110 144 37055ft 502kts
12-Jun-23 15:23 49.928823 -87.186252 144 37056ft 502kts
12-Jun-23 15:24 49.820662 -87.048862 144 37056ft 502kts
12-Jun-23 15:25 49.715630 -86.905219 139 37056ft 504kts
12-Jun-23 15:26 49.617047 -86.761516 139 37056ft 504kts
12-Jun-23 15:27 49.514824 -86.613607 139 37056ft 504kts
12-Jun-23 15:28 49.412736 -86.466808 139 37056ft 504kts
12-Jun-23 15:30 49.310406 -86.320462 140 37055ft 504kts
12-Jun-23 15:31 49.207633 -86.173933 140 37056ft 504kts
12-Jun-23 15:32 49.105773 -86.029988 140 37056ft 503kts
12-Jun-23 15:33 49.002832 -85.885431 140 37056ft 503kts
12-Jun-23 15:34 48.901603 -85.744111 140 37056ft 503kts
12-Jun-23 15:35 48.798057 -85.601040 140 37056ft 503kts
12-Jun-23 15:36 48.694676 -85.458545 140 37056ft 503kts
12-Jun-23 15:37 48.591976 -85.317559 141 37055ft 503kts
12-Jun-23 15:38 48.488169 -85.175463 141 37056ft 503kts
12-Jun-23 15:39 48.384437 -85.034719 141 37056ft 503kts
12-Jun-23 15:40 48.281377 -84.895743 141 37056ft 503kts
12-Jun-23 15:41 48.176979 -84.755757 141 37056ft 503kts
12-Jun-23 15:42 48.072733 -84.616772 141 37056ft 503kts
12-Jun-23 15:43 47.977709 -84.479326 134 37057ft 506kts
12-Jun-23 15:44 47.884377 -84.322170 135 37056ft 506kts
12-Jun-23 15:45 47.789855 -84.166666 135 37056ft 505kts
12-Jun-23 15:46 47.694788 -84.011422 135 37056ft 505kts
12-Jun-23 15:47 47.600879 -83.858936 135 37056ft 505kts
12-Jun-23 15:48 47.506136 -83.705975 135 37056ft 505kts
12-Jun-23 15:49 47.410983 -83.553236 135 37056ft 505kts
12-Jun-23 15:50 47.315764 -83.401261 135 37056ft 505kts
12-Jun-23 15:51 47.220175 -83.249182 136 37056ft 505kts
12-Jun-23 15:52 47.125445 -83.099456 136 37056ft 505kts
12-Jun-23 15:53 47.032149 -82.953036 136 37056ft 505kts
12-Jun-23 15:54 46.936362 -82.803558 136 37056ft 505kts
12-Jun-23 15:55 46.839770 -82.654168 136 37056ft 505kts
12-Jun-23 15:56 46.743183 -82.505509 136 37056ft 505kts
12-Jun-23 15:57 46.646583 -82.357309 136 37056ft 505kts
12-Jun-23 15:57 46.565780 -82.233488 137 37056ft 504kts
12-Jun-23 15:58 46.469118 -82.086466 137 37056ft 504kts
12-Jun-23 16:00 46.357730 -81.918252 137 37056ft 504kts
12-Jun-23 16:01 46.261664 -81.774035 137 37056ft 504kts
12-Jun-23 16:02 46.164389 -81.628790 137 37056ft 504kts
12-Jun-23 16:02 46.084547 -81.510161 137 37057ft 504kts
12-Jun-23 16:03 45.990101 -81.370504 137 37057ft 504kts
12-Jun-23 16:04 45.892025 -81.225796 138 37056ft 503kts
12-Jun-23 16:06 45.777274 -81.058577 138 37056ft 503kts
12-Jun-23 16:06 45.697994 -80.943334 138 37056ft 503kts
12-Jun-23 16:07 45.599873 -80.801305 138 37056ft 503kts
12-Jun-23 16:08 45.501465 -80.659600 138 37056ft 503kts
12-Jun-23 16:09 45.402724 -80.518163 138 37056ft 503kts
12-Jun-23 16:10 45.304298 -80.377915 138 37056ft 503kts
12-Jun-23 16:11 45.205012 -80.236725 138 37056ft 503kts
12-Jun-23 16:12 45.106653 -80.097849 138 37056ft 503kts
12-Jun-23 16:13 45.007505 -79.958749 138 37056ft 503kts
12-Jun-23 16:14 44.909312 -79.821704 138 37056ft 503kts
12-Jun-23 16:15 44.809245 -79.683367 138 37056ft 503kts
12-Jun-23 16:16 44.709048 -79.545132 138 37056ft 503kts
12-Jun-23 16:17 44.610213 -79.409304 138 37056ft 503kts
12-Jun-23 16:18 44.511775 -79.274367 139 37055ft 502kts
12-Jun-23 16:19 44.415428 -79.142963 139 37056ft 502kts
12-Jun-23 16:20 44.314991 -79.006941 139 37056ft 502kts
12-Jun-23 16:21 44.214558 -78.871628 139 37056ft 502kts
12-Jun-23 16:22 44.114081 -78.736932 139 37056ft 502kts
12-Jun-23 16:23 44.013206 -78.602371 139 37056ft 502kts
12-Jun-23 16:24 43.913464 -78.469975 139 37057ft 502kts
12-Jun-23 16:25 43.811977 -78.336469 140 37054ft 502kts
12-Jun-23 16:26 43.709969 -78.202037 140 37056ft 502kts
12-Jun-23 16:27 43.608822 -78.069686 140 37056ft 501kts
12-Jun-23 16:28 43.507563 -77.937897 140 37056ft 501kts
12-Jun-23 16:29 43.406057 -77.806427 140 37056ft 501kts
12-Jun-23 16:30 43.304301 -77.675270 140 37056ft 501kts
12-Jun-23 16:31 43.202768 -77.545032 140 37056ft 501kts
12-Jun-23 16:32 43.102566 -77.417121 140 37057ft 501kts
12-Jun-23 16:33 43.000293 -77.286983 140 37055ft 501kts
12-Jun-23 16:34 42.901688 -77.151201 132 37054ft 505kts
12-Jun-23 16:35 42.823040 -76.991378 123 37057ft 509kts
12-Jun-23 16:36 42.750348 -76.826207 123 37056ft 509kts
12-Jun-23 16:37 42.679149 -76.666251 123 37056ft 509kts
12-Jun-23 16:38 42.605719 -76.502090 123 37056ft 509kts
12-Jun-23 16:39 42.531862 -76.337952 124 37055ft 509kts
12-Jun-23 16:40 42.457821 -76.173681 124 37056ft 509kts
12-Jun-23 16:41 42.383610 -76.010449 124 37056ft 509kts
12-Jun-23 16:42 42.310927 -75.851599 124 37054ft 505kts
12-Jun-23 16:43 42.241032 -75.699436 124 37058ft 507kts
12-Jun-23 16:44 42.165308 -75.535380 124 37057ft 519kts
12-Jun-23 16:45 42.089185 -75.370151 122 37056ft 521kts
12-Jun-23 16:46 42.030155 -75.189407 111 37055ft 525kts
12-Jun-23 16:47 41.984397 -75.012519 111 36497ft 510kts
12-Jun-23 16:48 41.938232 -74.837476 111 33617ft 516kts
12-Jun-23 16:49 41.889980 -74.656432 111 31082ft 512kts
12-Jun-23 16:50 41.842332 -74.478302 111 28415ft 511kts
12-Jun-23 16:51 41.795457 -74.302025 111 26634ft 491kts
12-Jun-23 16:52 41.750010 -74.132498 111 24925ft 472kts
12-Jun-23 16:53 41.705932 -73.970707 114 23556ft 471kts
12-Jun-23 16:54 41.606561 -73.885373 186 22368ft 431kts
12-Jun-23 16:55 41.507010 -73.955690 217 21134ft 408kts
12-Jun-23 16:56 41.413320 -74.039337 215 20077ft 402kts
12-Jun-23 16:57 41.321013 -74.118262 215 20068ft 403kts
12-Jun-23 16:58 41.226775 -74.198699 215 20065ft 399kts
12-Jun-23 16:59 41.140571 -74.271973 216 20058ft 337kts
12-Jun-23 17:00 41.067905 -74.333635 217 20055ft 281kts
12-Jun-23 17:01 40.999593 -74.315272 128 19745ft 324kts
12-Jun-23 17:02 40.953559 -74.207422 119 19070ft 351kts
12-Jun-23 17:03 40.892141 -74.114120 163 19074ft 334kts
12-Jun-23 17:04 40.805376 -74.076465 167 17899ft 326kts
12-Jun-23 17:05 40.719484 -74.040769 167 16485ft 319kts
12-Jun-23 17:06 40.637795 -74.006871 167 15136ft 315kts
12-Jun-23 17:07 40.555389 -73.972949 167 13811ft 306kts
12-Jun-23 17:08 40.480492 -73.928543 133 13107ft 308kts
12-Jun-23 17:09 40.430370 -73.836815 127 10565ft 306kts
12-Jun-23 17:10 40.394491 -73.745367 84 8310ft 294kts
12-Jun-23 17:11 40.416547 -73.650980 34 6163ft 267kts
12-Jun-23 17:12 40.476081 -73.603434 26 4381ft 255kts
12-Jun-23 17:13 40.536772 -73.558530 26 4344ft 255kts
12-Jun-23 17:14 40.596528 -73.514387 26 4343ft 255kts
12-Jun-23 17:15 40.662906 -73.509572 346 2860ft 246kts
12-Jun-23 17:16 40.728137 -73.529226 346 2346ft 246kts
12-Jun-23 17:17 40.780687 -73.566304 298 2340ft 197kts
12-Jun-23 17:18 40.784128 -73.622803 238 2332ft 160kts
12-Jun-23 17:19 40.758952 -73.669331 237 2342ft 154kts
12-Jun-23 17:20 40.728159 -73.708230 212 1933ft 162kts
12-Jun-23 17:21 40.686028 -73.735253 214 894ft 159kts
12-Jun-23 17:22 40.648766 -73.764599 212 57ft 153kts
12-Jun-23 17:23 40.631970 -73.778783 265 24ft 9kts
12-Jun-23 17:24 40.633673 -73.779383 30 24ft 2kts
12-Jun-23 17:25 40.637560 -73.779035 350 25ft 18kts
12-Jun-23 17:26 40.637885 -73.780225 253 25ft 0kts

Navigation Log

Ident Type
Flight plan parsing failed, navigation log unavailable